Time;durP1;ratioP1;P1;durP2;ratioP2;P2;SDS_P1;SDS_P2;PMS_P1;PMS_P2;Temp;Humidity;BMP_temperature;BMP_pressure;BME280_temperature;BME280_humidity;BME280_pressure;Samples;Min_cycle;Max_cycle;Signal;HPM_P1;HPM_P2
2024/01/11 00:00:45;;;;;;;59.47;26.65;;;;;;;;;;4944264;29;20464;-76
2024/01/11 00:03:12;;;;;;;46.92;24.25;;;;;;;;;;4921057;29;20407;-75
2024/01/11 00:05:39;;;;;;;45.72;23.73;;;;;;;;;;4928191;29;20087;-76
2024/01/11 00:08:06;;;;;;;57.50;26.08;;;;;;;;;;4937245;29;20062;-76
2024/01/11 00:10:33;;;;;;;52.53;25.17;;;;;;;;;;4953975;29;20062;-76
2024/01/11 00:13:00;;;;;;;50.08;24.25;;;;;;;;;;4943892;29;20051;-76
2024/01/11 00:15:26;;;;;;;52.72;24.27;;;;;;;;;;4963116;29;20086;-77
2024/01/11 00:17:53;;;;;;;55.83;26.65;;;;;;;;;;4937710;29;20066;-76
2024/01/11 00:20:20;;;;;;;52.10;25.45;;;;;;;;;;4940622;29;20121;-76
2024/01/11 00:22:47;;;;;;;46.85;24.08;;;;;;;;;;4952206;29;20055;-76
2024/01/11 00:25:14;;;;;;;50.63;25.40;;;;;;;;;;4932662;29;20051;-77
2024/01/11 00:27:41;;;;;;;53.55;23.92;;;;;;;;;;4949882;29;20062;-75
2024/01/11 00:30:08;;;;;;;57.92;26.52;;;;;;;;;;4923985;29;20064;-76
2024/01/11 00:32:35;;;;;;;49.42;24.63;;;;;;;;;;4935898;29;20135;-75
2024/01/11 00:35:02;;;;;;;43.55;24.23;;;;;;;;;;4916887;29;20063;-76
2024/01/11 00:37:29;;;;;;;49.42;24.73;;;;;;;;;;4932992;28;20062;-76
2024/01/11 00:39:56;;;;;;;46.92;24.60;;;;;;;;;;4916903;29;20083;-76
2024/01/11 00:42:22;;;;;;;56.10;25.27;;;;;;;;;;4932023;29;20058;-76
2024/01/11 00:44:49;;;;;;;46.95;24.67;;;;;;;;;;4920343;29;20138;-76
2024/01/11 00:47:16;;;;;;;46.65;22.88;;;;;;;;;;4920741;29;20467;-76
2024/01/11 00:49:43;;;;;;;44.00;22.15;;;;;;;;;;4935866;29;20050;-76
2024/01/11 00:52:13;;;;;;;47.05;24.85;;;;;;;;;;4935620;29;20515;-76
2024/01/11 00:54:40;;;;;;;44.88;24.40;;;;;;;;;;4934398;29;20044;-76
2024/01/11 00:57:07;;;;;;;51.25;24.88;;;;;;;;;;4920369;29;20055;-75
2024/01/11 00:59:34;;;;;;;49.28;24.65;;;;;;;;;;4951473;29;20047;-75
2024/01/11 01:02:01;;;;;;;49.28;24.77;;;;;;;;;;4935878;29;20143;-74
2024/01/11 01:04:28;;;;;;;43.00;22.92;;;;;;;;;;4920174;29;20134;-75
2024/01/11 01:06:55;;;;;;;52.42;24.33;;;;;;;;;;4932597;29;20051;-75
2024/01/11 01:09:21;;;;;;;46.97;22.98;;;;;;;;;;4931676;29;20114;-74
2024/01/11 01:11:48;;;;;;;48.25;24.60;;;;;;;;;;4919298;29;20596;-76
2024/01/11 01:14:15;;;;;;;49.58;24.90;;;;;;;;;;4920400;29;20051;-77
2024/01/11 01:16:42;;;;;;;48.95;23.35;;;;;;;;;;4920547;29;20055;-76
2024/01/11 01:19:09;;;;;;;45.35;22.90;;;;;;;;;;4919939;29;20059;-76
2024/01/11 01:21:36;;;;;;;48.10;23.23;;;;;;;;;;4951416;28;20055;-76
2024/01/11 01:24:03;;;;;;;48.30;23.38;;;;;;;;;;4919781;29;20053;-77
2024/01/11 01:26:30;;;;;;;49.53;24.63;;;;;;;;;;4921258;29;20066;-77
2024/01/11 01:28:57;;;;;;;49.33;23.75;;;;;;;;;;4921692;29;20515;-77
2024/01/11 01:31:23;;;;;;;52.63;23.45;;;;;;;;;;4937299;29;20404;-76
2024/01/11 01:33:50;;;;;;;48.88;24.85;;;;;;;;;;4937268;29;20055;-77
2024/01/11 01:36:17;;;;;;;47.97;22.77;;;;;;;;;;4920571;29;20059;-76
2024/01/11 01:38:45;;;;;;;43.33;23.83;;;;;;;;;;4921467;29;20126;-75
2024/01/11 01:41:12;;;;;;;47.25;23.63;;;;;;;;;;4923441;29;20055;-75
2024/01/11 01:43:38;;;;;;;54.15;25.60;;;;;;;;;;4937195;29;20062;-76
2024/01/11 01:46:05;;;;;;;46.15;23.27;;;;;;;;;;4938847;29;20129;-76
2024/01/11 01:48:32;;;;;;;49.88;24.05;;;;;;;;;;4925181;29;20106;-75
2024/01/11 01:50:59;;;;;;;47.67;23.55;;;;;;;;;;4954564;29;20561;-76
2024/01/11 01:53:28;;;;;;;46.63;21.67;;;;;;;;;;4931042;29;20063;-75
2024/01/11 01:55:55;;;;;;;46.90;23.20;;;;;;;;;;4958717;28;20055;-75
2024/01/11 01:58:21;;;;;;;54.63;24.50;;;;;;;;;;4949394;28;20055;-76
2024/01/11 02:00:49;;;;;;;46.08;21.85;;;;;;;;;;4939439;29;20059;-76
2024/01/11 02:03:16;;;;;;;44.35;22.40;;;;;;;;;;4923283;29;20152;-76
2024/01/11 02:05:43;;;;;;;50.92;23.73;;;;;;;;;;4933255;29;20047;-76
2024/01/11 02:08:15;;;;;;;48.80;23.35;;;;;;;;;;4936567;29;20092;-77
2024/01/11 02:10:42;;;;;;;47.22;22.90;;;;;;;;;;4923390;29;20079;-77
2024/01/11 02:13:09;;;;;;;45.13;22.55;;;;;;;;;;4924633;29;20479;-77
2024/01/11 02:15:36;;;;;;;48.97;23.58;;;;;;;;;;4934595;29;20051;-76
2024/01/11 02:18:03;;;;;;;54.63;24.00;;;;;;;;;;4924543;29;20055;-77
2024/01/11 02:20:31;;;;;;;49.97;22.85;;;;;;;;;;4939754;29;20048;-76
2024/01/11 02:23:06;;;;;;;52.40;23.08;;;;;;;;;;4939149;29;20051;-77
2024/01/11 02:25:33;;;;;;;47.20;22.25;;;;;;;;;;4923935;29;20145;-76
2024/01/11 02:28:00;;;;;;;46.00;21.75;;;;;;;;;;4938636;29;20059;-76
2024/01/11 02:30:26;;;;;;;46.03;22.85;;;;;;;;;;4922552;29;20058;-74
2024/01/11 02:32:53;;;;;;;47.25;22.42;;;;;;;;;;4922575;29;20139;-76
2024/01/11 02:35:20;;;;;;;48.45;22.58;;;;;;;;;;4923285;29;20061;-76
2024/01/11 02:37:47;;;;;;;42.30;21.90;;;;;;;;;;4924018;29;20054;-77
2024/01/11 02:40:14;;;;;;;46.13;22.38;;;;;;;;;;4924139;29;20126;-76
2024/01/11 02:42:42;;;;;;;46.50;22.58;;;;;;;;;;4924438;29;20059;-77
2024/01/11 02:45:09;;;;;;;43.22;21.23;;;;;;;;;;4923813;29;20055;-77
2024/01/11 02:47:35;;;;;;;49.08;22.92;;;;;;;;;;4923549;29;20357;-77
2024/01/11 02:50:03;;;;;;;47.45;23.02;;;;;;;;;;4922661;29;20058;-77
2024/01/11 02:52:30;;;;;;;48.10;23.30;;;;;;;;;;4923546;29;20075;-77
2024/01/11 02:54:57;;;;;;;45.13;21.88;;;;;;;;;;4923833;29;20086;-77
2024/01/11 02:57:24;;;;;;;48.80;22.17;;;;;;;;;;4923861;29;20070;-76
2024/01/11 02:59:51;;;;;;;60.20;23.52;;;;;;;;;;4939229;29;20475;-76
2024/01/11 03:02:18;;;;;;;47.65;22.10;;;;;;;;;;4923965;29;20110;-77
2024/01/11 03:04:45;;;;;;;46.40;23.00;;;;;;;;;;4924362;29;20066;-77
2024/01/11 03:07:11;;;;;;;45.90;21.92;;;;;;;;;;4920461;29;20048;-77
2024/01/11 03:09:38;;;;;;;45.53;22.15;;;;;;;;;;4937751;29;20055;-77
2024/01/11 03:12:06;;;;;;;42.40;20.98;;;;;;;;;;4923944;29;20059;-77
2024/01/11 03:14:33;;;;;;;48.97;23.20;;;;;;;;;;4923560;29;20055;-77
2024/01/11 03:17:00;;;;;;;46.78;23.17;;;;;;;;;;4922737;29;20066;-77
2024/01/11 03:19:27;;;;;;;48.33;21.70;;;;;;;;;;4922613;29;20489;-76
2024/01/11 03:21:54;;;;;;;54.58;23.52;;;;;;;;;;4935215;29;20043;-76
2024/01/11 03:24:21;;;;;;;49.75;21.83;;;;;;;;;;4969758;29;20047;-76
2024/01/11 03:26:48;;;;;;;43.80;21.50;;;;;;;;;;4937697;29;20063;-75
2024/01/11 03:29:15;;;;;;;50.05;23.42;;;;;;;;;;4921950;29;20055;-75
2024/01/11 03:31:44;;;;;;;45.88;21.00;;;;;;;;;;4937221;29;20063;-76
2024/01/11 03:34:12;;;;;;;58.80;23.58;;;;;;;;;;4922553;29;20415;-75
2024/01/11 03:36:39;;;;;;;43.25;22.02;;;;;;;;;;4921464;29;20090;-75
2024/01/11 03:39:09;;;;;;;53.22;23.90;;;;;;;;;;4921381;29;20055;-75
2024/01/11 03:41:36;;;;;;;53.20;22.90;;;;;;;;;;4936524;29;20094;-75
2024/01/11 03:44:03;;;;;;;50.15;21.27;;;;;;;;;;4937148;29;20051;-76
2024/01/11 03:46:30;;;;;;;47.33;21.58;;;;;;;;;;4921465;29;20051;-75
2024/01/11 03:48:57;;;;;;;56.30;23.73;;;;;;;;;;4924298;29;20063;-77
2024/01/11 03:51:24;;;;;;;47.03;22.13;;;;;;;;;;4924521;29;20055;-76
2024/01/11 03:53:51;;;;;;;53.25;21.02;;;;;;;;;;4921598;29;20051;-76
2024/01/11 03:56:19;;;;;;;49.20;22.45;;;;;;;;;;4937911;29;20122;-75
2024/01/11 03:58:46;;;;;;;42.75;20.38;;;;;;;;;;4921992;29;20055;-75
2024/01/11 04:01:13;;;;;;;54.08;23.00;;;;;;;;;;4936080;29;20043;-76
2024/01/11 04:03:41;;;;;;;47.53;22.75;;;;;;;;;;4920696;29;20082;-76
2024/01/11 04:06:08;;;;;;;48.92;22.42;;;;;;;;;;4920799;29;20054;-76
2024/01/11 04:08:36;;;;;;;50.85;23.33;;;;;;;;;;4936243;29;20137;-76
2024/01/11 04:11:04;;;;;;;51.10;22.95;;;;;;;;;;4920605;29;20134;-75
2024/01/11 04:13:31;;;;;;;43.58;20.65;;;;;;;;;;4921255;29;20051;-76
2024/01/11 04:15:58;;;;;;;52.38;24.35;;;;;;;;;;4936938;29;20048;-76
2024/01/11 04:18:24;;;;;;;48.58;20.58;;;;;;;;;;4921074;29;20102;-76
2024/01/11 04:20:51;;;;;;;48.35;21.95;;;;;;;;;;4920582;29;20352;-77
2024/01/11 04:23:18;;;;;;;45.00;21.45;;;;;;;;;;4943342;28;20050;-76
2024/01/11 04:25:45;;;;;;;47.30;23.20;;;;;;;;;;4955750;28;20093;-75
2024/01/11 04:28:12;;;;;;;45.65;21.33;;;;;;;;;;4939772;28;20113;-76
2024/01/11 04:30:39;;;;;;;51.40;23.70;;;;;;;;;;4933953;28;20046;-76
2024/01/11 04:33:06;;;;;;;46.50;21.98;;;;;;;;;;4935054;29;20061;-76
2024/01/11 04:35:33;;;;;;;47.55;20.90;;;;;;;;;;4952758;29;20055;-75
2024/01/11 04:38:00;;;;;;;49.45;23.92;;;;;;;;;;4921279;29;20194;-76
2024/01/11 04:40:27;;;;;;;51.65;23.10;;;;;;;;;;4927817;29;20086;-75
2024/01/11 04:42:54;;;;;;;41.80;20.58;;;;;;;;;;4918488;29;20448;-76
2024/01/11 04:45:21;;;;;;;49.15;21.73;;;;;;;;;;4953110;29;20051;-76
2024/01/11 04:47:50;;;;;;;54.30;23.55;;;;;;;;;;4921111;29;20063;-75
2024/01/11 04:50:17;;;;;;;45.13;22.25;;;;;;;;;;4933201;29;20471;-75
2024/01/11 04:52:48;;;;;;;50.75;22.00;;;;;;;;;;4935868;29;20178;-75
2024/01/11 04:55:14;;;;;;;49.88;23.65;;;;;;;;;;4936431;29;20087;-75
2024/01/11 04:57:41;;;;;;;48.30;21.65;;;;;;;;;;4936566;29;20062;-75
2024/01/11 05:00:08;;;;;;;50.95;21.70;;;;;;;;;;4936883;29;20058;-75
2024/01/11 05:02:35;;;;;;;46.47;21.85;;;;;;;;;;4936295;29;20110;-74
2024/01/11 05:05:03;;;;;;;46.63;22.02;;;;;;;;;;4920876;29;20058;-75
2024/01/11 05:07:30;;;;;;;50.00;21.85;;;;;;;;;;4928045;28;20134;-75
2024/01/11 05:09:57;;;;;;;48.40;21.58;;;;;;;;;;4920475;29;20431;-74
2024/01/11 05:12:24;;;;;;;52.10;22.98;;;;;;;;;;4933513;29;20043;-75
2024/01/11 05:14:51;;;;;;;46.72;22.10;;;;;;;;;;4939854;29;20084;-74
2024/01/11 05:17:17;;;;;;;42.90;21.25;;;;;;;;;;4921881;29;20051;-75
2024/01/11 05:19:44;;;;;;;44.50;21.83;;;;;;;;;;4938698;29;20059;-75
2024/01/11 05:22:11;;;;;;;45.50;21.85;;;;;;;;;;4926135;29;20574;-75
2024/01/11 05:24:38;;;;;;;45.75;20.30;;;;;;;;;;4921064;29;20075;-75
2024/01/11 05:27:07;;;;;;;48.50;21.70;;;;;;;;;;4939054;28;20074;-75
2024/01/11 05:29:34;;;;;;;51.00;22.65;;;;;;;;;;4940147;29;20091;-75
2024/01/11 05:32:00;;;;;;;48.20;21.25;;;;;;;;;;4935010;29;20031;-74
2024/01/11 05:34:28;;;;;;;51.38;23.60;;;;;;;;;;4969179;29;20086;-74
2024/01/11 05:36:54;;;;;;;43.20;21.08;;;;;;;;;;4936939;29;20146;-76
2024/01/11 05:39:23;;;;;;;46.30;20.67;;;;;;;;;;4939410;29;20106;-75
2024/01/11 05:41:49;;;;;;;48.20;23.65;;;;;;;;;;4922625;28;20465;-75
2024/01/11 05:44:16;;;;;;;47.63;23.48;;;;;;;;;;4942133;29;20585;-76
2024/01/11 05:46:44;;;;;;;47.90;21.85;;;;;;;;;;4939283;29;20059;-76
2024/01/11 05:49:10;;;;;;;42.63;21.25;;;;;;;;;;4933679;29;20083;-76
2024/01/11 05:51:44;;;;;;;47.67;21.88;;;;;;;;;;4937025;29;20158;-76
2024/01/11 05:54:11;;;;;;;48.00;22.30;;;;;;;;;;4937109;29;20054;-76
2024/01/11 05:56:37;;;;;;;46.75;20.90;;;;;;;;;;4939804;29;20087;-76
2024/01/11 05:59:04;;;;;;;48.53;21.08;;;;;;;;;;4923558;28;20051;-76
2024/01/11 06:01:31;;;;;;;50.67;22.60;;;;;;;;;;4922796;29;20051;-76
2024/01/11 06:03:58;;;;;;;62.00;24.08;;;;;;;;;;4947459;28;20055;-75
2024/01/11 06:06:25;;;;;;;51.25;21.65;;;;;;;;;;4923104;29;20142;-76
2024/01/11 06:08:52;;;;;;;55.80;24.88;;;;;;;;;;4946680;29;20519;-75
2024/01/11 06:11:19;;;;;;;52.03;23.55;;;;;;;;;;4922977;29;20098;-75
2024/01/11 06:13:47;;;;;;;47.60;22.02;;;;;;;;;;4930972;29;20059;-75
2024/01/11 06:16:13;;;;;;;50.60;23.55;;;;;;;;;;4923517;28;20058;-76
2024/01/11 06:18:40;;;;;;;50.65;21.85;;;;;;;;;;4937819;29;20051;-76
2024/01/11 06:21:07;;;;;;;48.47;21.98;;;;;;;;;;4920352;29;20048;-77
2024/01/11 06:23:34;;;;;;;48.30;22.38;;;;;;;;;;4935475;28;20139;-76
2024/01/11 06:26:01;;;;;;;47.60;24.77;;;;;;;;;;4955854;29;20090;-77
2024/01/11 06:28:28;;;;;;;47.10;23.10;;;;;;;;;;4923919;29;20619;-75
2024/01/11 06:30:55;;;;;;;46.90;23.45;;;;;;;;;;4923383;29;20098;-77
2024/01/11 06:33:22;;;;;;;49.55;23.73;;;;;;;;;;4949868;28;20055;-76
2024/01/11 06:35:49;;;;;;;53.92;23.48;;;;;;;;;;4925086;29;20051;-77
2024/01/11 06:38:16;;;;;;;48.17;22.27;;;;;;;;;;4924532;29;20114;-77
2024/01/11 06:40:43;;;;;;;49.35;22.35;;;;;;;;;;4939228;29;20055;-77
2024/01/11 06:43:10;;;;;;;55.78;23.45;;;;;;;;;;4924421;29;20499;-77
2024/01/11 06:45:37;;;;;;;54.40;24.27;;;;;;;;;;4940235;29;20122;-76
2024/01/11 06:48:04;;;;;;;50.75;25.00;;;;;;;;;;4922672;29;20080;-77
2024/01/11 06:50:31;;;;;;;49.78;22.83;;;;;;;;;;4924358;29;20061;-77
2024/01/11 06:52:58;;;;;;;48.50;22.52;;;;;;;;;;4923986;29;20047;-77
2024/01/11 06:55:25;;;;;;;50.58;23.60;;;;;;;;;;4940056;29;20593;-77
2024/01/11 06:57:51;;;;;;;47.33;22.17;;;;;;;;;;4941215;29;20062;-77
2024/01/11 07:00:19;;;;;;;55.13;24.50;;;;;;;;;;4937738;29;20558;-78
2024/01/11 07:02:45;;;;;;;52.47;22.95;;;;;;;;;;4943552;29;20055;-76
2024/01/11 07:05:13;;;;;;;50.80;22.88;;;;;;;;;;4931194;29;20051;-77
2024/01/11 07:07:40;;;;;;;63.95;25.42;;;;;;;;;;4941510;28;20061;-78
2024/01/11 07:10:08;;;;;;;46.85;21.73;;;;;;;;;;4924583;29;20130;-76
2024/01/11 07:12:37;;;;;;;51.95;22.58;;;;;;;;;;4937805;29;20140;-76
2024/01/11 07:15:04;;;;;;;51.45;23.20;;;;;;;;;;4922987;29;20055;-75
2024/01/11 07:17:31;;;;;;;53.95;25.60;;;;;;;;;;4925230;29;20078;-75
2024/01/11 07:19:58;;;;;;;49.88;22.42;;;;;;;;;;4937324;29;20122;-75
2024/01/11 07:22:25;;;;;;;49.17;23.13;;;;;;;;;;4923002;29;20058;-80
2024/01/11 07:24:52;;;;;;;52.15;23.55;;;;;;;;;;4925761;29;20479;-76
2024/01/11 07:27:19;;;;;;;49.22;23.15;;;;;;;;;;4925397;29;20055;-78
2024/01/11 07:29:46;;;;;;;44.35;20.27;;;;;;;;;;4957042;29;20055;-80
2024/01/11 07:32:13;;;;;;;43.72;21.02;;;;;;;;;;4942155;29;20055;-80
2024/01/11 07:34:40;;;;;;;49.22;22.23;;;;;;;;;;4925843;29;20058;-79
2024/01/11 07:37:08;;;;;;;56.10;23.95;;;;;;;;;;4925503;29;20061;-78
2024/01/11 07:39:36;;;;;;;46.80;21.48;;;;;;;;;;4940207;29;20043;-79
2024/01/11 07:42:03;;;;;;;44.83;22.02;;;;;;;;;;4925583;29;20138;-81
2024/01/11 07:44:30;;;;;;;51.97;23.85;;;;;;;;;;4939953;29;20106;-78
2024/01/11 07:46:57;;;;;;;53.63;22.90;;;;;;;;;;4933107;29;20059;-80
2024/01/11 07:49:27;;;;;;;52.10;23.63;;;;;;;;;;4920713;29;20064;-77
2024/01/11 07:51:54;;;;;;;52.47;23.55;;;;;;;;;;4931063;29;20419;-77
2024/01/11 07:54:21;;;;;;;52.88;23.83;;;;;;;;;;4923075;29;20401;-78
2024/01/11 07:56:48;;;;;;;44.42;20.95;;;;;;;;;;4922497;29;20058;-78
2024/01/11 07:59:15;;;;;;;52.10;23.77;;;;;;;;;;4918726;29;20167;-78
2024/01/11 08:01:42;;;;;;;54.65;23.48;;;;;;;;;;4936334;29;20051;-80
2024/01/11 08:04:09;;;;;;;49.40;24.42;;;;;;;;;;4939031;29;20055;-78
2024/01/11 08:06:36;;;;;;;55.92;24.33;;;;;;;;;;4939441;29;20059;-78
2024/01/11 08:09:04;;;;;;;46.42;22.85;;;;;;;;;;4923366;29;20059;-78
2024/01/11 08:11:32;;;;;;;52.95;23.58;;;;;;;;;;4939030;29;20118;-78
2024/01/11 08:14:05;;;;;;;53.80;24.40;;;;;;;;;;4924827;29;20047;-78
2024/01/11 08:16:33;;;;;;;54.58;25.10;;;;;;;;;;4925878;29;20142;-77
2024/01/11 08:19:00;;;;;;;52.33;24.52;;;;;;;;;;4923076;29;20051;-78
2024/01/11 08:21:28;;;;;;;57.40;25.05;;;;;;;;;;4939145;29;20141;-78
2024/01/11 08:23:55;;;;;;;56.60;24.92;;;;;;;;;;4923261;29;20059;-77
2024/01/11 08:26:29;;;;;;;55.05;25.67;;;;;;;;;;4939803;28;20559;-78
2024/01/11 08:28:57;;;;;;;50.88;25.15;;;;;;;;;;4922719;29;20063;-79
2024/01/11 08:31:24;;;;;;;51.08;24.40;;;;;;;;;;4922955;29;20103;-79
2024/01/11 08:33:51;;;;;;;58.42;25.60;;;;;;;;;;4938338;28;20065;-78
2024/01/11 08:36:18;;;;;;;57.40;27.50;;;;;;;;;;4919720;29;20539;-75
2024/01/11 08:38:45;;;;;;;56.33;26.40;;;;;;;;;;4935714;29;20061;-80
2024/01/11 08:41:12;;;;;;;52.20;24.48;;;;;;;;;;4919635;29;20051;-79
2024/01/11 08:43:39;;;;;;;53.33;25.92;;;;;;;;;;4921977;29;20059;-80
2024/01/11 08:46:06;;;;;;;53.25;25.23;;;;;;;;;;4916636;29;20141;-76
2024/01/11 08:48:35;;;;;;;46.42;24.60;;;;;;;;;;4935317;29;20050;-78
2024/01/11 08:51:03;;;;;;;58.30;26.80;;;;;;;;;;4936579;29;20517;-77
2024/01/11 08:53:31;;;;;;;53.65;25.27;;;;;;;;;;4933278;29;20050;-78
2024/01/11 08:55:58;;;;;;;53.22;24.55;;;;;;;;;;4921370;29;20101;-79
2024/01/11 08:58:24;;;;;;;50.67;25.00;;;;;;;;;;4920676;29;20723;-79
2024/01/11 09:00:51;;;;;;;52.22;24.88;;;;;;;;;;4922166;29;20051;-78
2024/01/11 09:03:18;;;;;;;54.08;26.02;;;;;;;;;;4913995;29;20043;-80
2024/01/11 09:05:46;;;;;;;51.35;24.23;;;;;;;;;;4919980;29;20094;-76
2024/01/11 09:08:13;;;;;;;46.22;23.02;;;;;;;;;;4918314;29;20066;-75
2024/01/11 09:10:41;;;;;;;48.28;23.48;;;;;;;;;;4932527;29;20047;-75
2024/01/11 09:13:09;;;;;;;50.83;23.90;;;;;;;;;;4936837;29;20082;-76
2024/01/11 09:15:38;;;;;;;49.20;23.95;;;;;;;;;;4922942;29;20098;-77
2024/01/11 09:18:05;;;;;;;47.88;23.77;;;;;;;;;;4916728;29;20078;-75
2024/01/11 09:20:33;;;;;;;49.70;24.50;;;;;;;;;;4915718;29;20050;-76
2024/01/11 09:23:03;;;;;;;50.40;24.90;;;;;;;;;;4913391;29;20048;-76
2024/01/11 09:25:30;;;;;;;49.60;25.58;;;;;;;;;;4922304;29;20051;-75
2024/01/11 09:27:57;;;;;;;46.53;22.98;;;;;;;;;;4916180;29;20059;-76
2024/01/11 09:30:24;;;;;;;50.08;24.52;;;;;;;;;;4938357;29;20098;-78
2024/01/11 09:32:52;;;;;;;48.50;23.60;;;;;;;;;;4927869;29;20616;-78
2024/01/11 09:35:19;;;;;;;49.85;24.35;;;;;;;;;;4930456;28;20134;-79
2024/01/11 09:37:46;;;;;;;44.90;23.40;;;;;;;;;;4922344;29;20051;-79
2024/01/11 09:40:17;;;;;;;51.22;24.08;;;;;;;;;;4927845;29;20058;-79
2024/01/11 09:42:44;;;;;;;54.03;24.13;;;;;;;;;;4923395;29;20043;-78
2024/01/11 09:45:16;;;;;;;41.90;22.98;;;;;;;;;;4922748;29;20086;-78
2024/01/11 09:47:46;;;;;;;54.92;23.90;;;;;;;;;;4922906;29;20055;-78
2024/01/11 09:50:17;;;;;;;45.80;23.38;;;;;;;;;;4922129;29;20293;-79
2024/01/11 09:52:49;;;;;;;48.67;23.90;;;;;;;;;;4933939;28;20043;-78
2024/01/11 09:55:17;;;;;;;49.45;25.05;;;;;;;;;;4922518;29;20103;-78
2024/01/11 09:57:46;;;;;;;47.85;24.05;;;;;;;;;;4921838;29;20515;-78
2024/01/11 10:00:16;;;;;;;44.88;23.02;;;;;;;;;;4924309;29;20099;-79
2024/01/11 10:02:43;;;;;;;48.45;24.73;;;;;;;;;;4932861;29;20051;-78
2024/01/11 10:05:13;;;;;;;50.15;24.90;;;;;;;;;;4926230;29;20083;-78
2024/01/11 10:07:41;;;;;;;44.03;23.23;;;;;;;;;;4932277;29;20057;-78
2024/01/11 10:10:09;;;;;;;46.00;23.33;;;;;;;;;;4950463;29;20050;-79
2024/01/11 10:12:36;;;;;;;47.40;25.17;;;;;;;;;;4931323;29;20052;-78
2024/01/11 10:15:06;;;;;;;47.13;23.88;;;;;;;;;;4925940;29;20051;-79
2024/01/11 10:17:33;;;;;;;53.45;23.60;;;;;;;;;;4926023;29;20051;-79
2024/01/11 10:20:01;;;;;;;49.10;24.20;;;;;;;;;;4922379;29;20062;-79
2024/01/11 10:22:28;;;;;;;44.05;23.23;;;;;;;;;;4954349;29;20047;-79
2024/01/11 10:25:12;;;;;;;53.53;26.40;;;;;;;;;;4950613;29;20106;-78
2024/01/11 10:27:43;;;;;;;51.40;23.58;;;;;;;;;;4926561;29;20050;-78
2024/01/11 10:30:12;;;;;;;45.78;21.65;;;;;;;;;;4922622;29;20055;-78
2024/01/11 10:32:40;;;;;;;43.85;24.35;;;;;;;;;;4926984;29;20053;-78
2024/01/11 10:35:07;;;;;;;48.75;24.10;;;;;;;;;;4927167;29;20059;-77
2024/01/11 10:37:34;;;;;;;45.40;23.00;;;;;;;;;;4926367;29;20055;-78
2024/01/11 10:40:10;;;;;;;43.22;23.88;;;;;;;;;;4936661;29;20047;-78
2024/01/11 10:42:44;;;;;;;45.90;23.10;;;;;;;;;;4933459;29;20780;-79
2024/01/11 10:45:18;;;;;;;45.85;23.30;;;;;;;;;;4926659;29;20148;-78
2024/01/11 10:47:56;;;;;;;40.03;21.67;;;;;;;;;;4939715;29;20106;-78
2024/01/11 10:50:27;;;;;;;42.83;22.33;;;;;;;;;;4926340;29;20142;-78
2024/01/11 10:53:04;;;;;;;48.50;22.92;;;;;;;;;;4925232;29;20047;-78
2024/01/11 10:55:32;;;;;;;45.10;22.33;;;;;;;;;;4943707;29;20549;-77
2024/01/11 10:58:00;;;;;;;46.38;22.38;;;;;;;;;;4925977;29;20066;-77
2024/01/11 11:00:28;;;;;;;43.75;21.65;;;;;;;;;;4925946;29;20507;-78
2024/01/11 11:02:56;;;;;;;41.03;22.27;;;;;;;;;;4930573;29;20051;-79
2024/01/11 11:05:24;;;;;;;47.33;21.60;;;;;;;;;;4926900;29;20494;-79
2024/01/11 11:07:51;;;;;;;52.17;23.63;;;;;;;;;;4937048;29;20430;-78
2024/01/11 11:10:18;;;;;;;43.55;22.05;;;;;;;;;;4927714;29;20107;-78
2024/01/11 11:12:46;;;;;;;45.60;22.30;;;;;;;;;;4925032;29;20047;-79
2024/01/11 11:15:13;;;;;;;42.90;20.23;;;;;;;;;;4919797;29;20061;-78
2024/01/11 11:17:41;;;;;;;42.90;20.92;;;;;;;;;;4939364;29;20062;-79
2024/01/11 11:20:11;;;;;;;42.08;21.08;;;;;;;;;;4923005;29;20063;-78
2024/01/11 11:22:40;;;;;;;43.40;21.88;;;;;;;;;;4932391;29;20047;-78
2024/01/11 11:25:11;;;;;;;42.20;21.92;;;;;;;;;;4936911;29;20059;-78
2024/01/11 11:27:38;;;;;;;43.08;21.92;;;;;;;;;;4928331;29;20130;-79
2024/01/11 11:30:06;;;;;;;43.53;21.95;;;;;;;;;;4940279;29;20468;-79
2024/01/11 11:32:43;;;;;;;45.20;23.15;;;;;;;;;;4940726;29;20503;-79
2024/01/11 11:35:10;;;;;;;42.58;21.42;;;;;;;;;;4942759;29;20142;-79
2024/01/11 11:37:38;;;;;;;47.65;22.60;;;;;;;;;;4933078;29;20062;-79
2024/01/11 11:40:06;;;;;;;45.95;23.73;;;;;;;;;;4936261;29;20063;-79
2024/01/11 11:42:36;;;;;;;45.40;22.92;;;;;;;;;;4927314;29;20054;-80
2024/01/11 11:45:04;;;;;;;44.28;23.40;;;;;;;;;;4943013;29;20487;-79
2024/01/11 11:47:35;;;;;;;48.50;24.75;;;;;;;;;;4942836;29;20180;-79
2024/01/11 11:50:04;;;;;;;45.83;23.83;;;;;;;;;;4921825;29;20087;-83
2024/01/11 11:52:38;;;;;;;44.03;23.70;;;;;;;;;;4943032;29;20050;-80
2024/01/11 11:55:06;;;;;;;47.45;23.48;;;;;;;;;;4925952;29;20054;-78
2024/01/11 11:57:44;;;;;;;49.10;23.98;;;;;;;;;;4938462;29;20111;-79
2024/01/11 12:00:18;;;;;;;45.22;21.77;;;;;;;;;;4920374;29;20051;-78
2024/01/11 12:03:27;;;;;;;46.53;23.08;;;;;;;;;;4931492;29;20530;-81
2024/01/11 12:06:11;;;;;;;42.03;22.42;;;;;;;;;;4950692;28;20170;-79
2024/01/11 12:08:40;;;;;;;45.80;24.85;;;;;;;;;;4924911;29;20055;-79
2024/01/11 12:11:07;;;;;;;44.13;23.48;;;;;;;;;;4924020;29;20055;-79
2024/01/11 12:13:35;;;;;;;47.53;22.65;;;;;;;;;;4923220;29;20043;-80
2024/01/11 12:16:04;;;;;;;47.10;23.50;;;;;;;;;;4923196;29;20118;-79
2024/01/11 12:18:31;;;;;;;43.65;22.42;;;;;;;;;;4917632;29;20086;-80
2024/01/11 12:20:58;;;;;;;41.35;22.95;;;;;;;;;;4922217;29;20047;-80
2024/01/11 12:23:25;;;;;;;46.65;23.63;;;;;;;;;;4922829;29;20054;-79
2024/01/11 12:25:52;;;;;;;46.83;24.48;;;;;;;;;;4927537;29;20582;-80
2024/01/11 12:28:19;;;;;;;41.95;22.48;;;;;;;;;;4923437;29;20051;-79
2024/01/11 12:30:46;;;;;;;45.33;23.17;;;;;;;;;;4924306;29;20137;-79
2024/01/11 12:33:13;;;;;;;47.65;23.98;;;;;;;;;;4933391;28;20499;-80
2024/01/11 12:35:40;;;;;;;45.42;23.35;;;;;;;;;;4925069;29;20055;-79
2024/01/11 12:38:09;;;;;;;38.17;22.90;;;;;;;;;;4922684;29;20507;-78
2024/01/11 12:40:42;;;;;;;43.55;22.52;;;;;;;;;;4929092;29;20055;-80
2024/01/11 12:43:11;;;;;;;;;;;;;;;;;;4924807;29;20039;-79
2024/01/11 12:45:38;;;;;;;42.25;22.35;;;;;;;;;;4933598;29;20535;-80
2024/01/11 12:48:07;;;;;;;41.00;21.77;;;;;;;;;;4921068;29;20051;-80
2024/01/11 12:50:34;;;;;;;42.92;22.73;;;;;;;;;;4934049;29;20055;-80
2024/01/11 12:53:17;;;;;;;44.10;23.23;;;;;;;;;;4923199;29;20058;-80
2024/01/11 12:55:48;;;;;;;47.92;23.15;;;;;;;;;;4936028;29;20047;-79
2024/01/11 12:58:26;;;;;;;45.35;23.00;;;;;;;;;;4924566;29;20051;-80
2024/01/11 13:00:53;;;;;;;44.10;22.98;;;;;;;;;;4923564;29;21101;-80
2024/01/11 13:03:21;;;;;;;44.35;23.23;;;;;;;;;;4922902;29;20059;-80
2024/01/11 13:05:48;;;;;;;44.05;22.10;;;;;;;;;;4930476;29;20043;-80
2024/01/11 13:08:16;;;;;;;41.35;22.45;;;;;;;;;;4931745;29;20055;-79
2024/01/11 13:10:47;;;;;;;48.65;24.83;;;;;;;;;;4939114;29;20055;-80
2024/01/11 13:13:15;;;;;;;42.80;23.65;;;;;;;;;;4929956;29;20070;-80
2024/01/11 13:15:41;;;;;;;46.88;23.73;;;;;;;;;;4926808;29;20069;-80
2024/01/11 13:18:09;;;;;;;41.03;22.30;;;;;;;;;;4929281;29;20047;-80
2024/01/11 13:20:36;;;;;;;43.03;22.95;;;;;;;;;;4936716;28;20058;-79
2024/01/11 13:23:13;;;;;;;49.03;23.25;;;;;;;;;;4946297;29;20047;-80
2024/01/11 13:25:44;;;;;;;38.17;20.70;;;;;;;;;;4952313;29;20147;-80
2024/01/11 13:28:11;;;;;;;43.90;23.58;;;;;;;;;;4937732;29;20047;-80
2024/01/11 13:30:42;;;;;;;40.35;22.30;;;;;;;;;;4928600;29;20076;-79
2024/01/11 13:33:13;;;;;;;46.50;23.77;;;;;;;;;;4924729;28;20055;-79
2024/01/11 13:35:42;;;;;;;41.67;21.90;;;;;;;;;;4927428;29;20167;-79
2024/01/11 13:38:10;;;;;;;42.28;23.52;;;;;;;;;;4937761;28;20051;-80
2024/01/11 13:40:39;;;;;;;45.55;24.73;;;;;;;;;;4926022;29;20043;-79
2024/01/11 13:43:07;;;;;;;46.35;22.45;;;;;;;;;;4942541;29;20047;-79
2024/01/11 13:45:35;;;;;;;41.67;22.15;;;;;;;;;;4942117;29;20086;-80
2024/01/11 13:48:04;;;;;;;45.20;22.95;;;;;;;;;;4940265;29;20051;-80
2024/01/11 13:50:33;;;;;;;45.65;22.92;;;;;;;;;;4939938;29;20051;-80
2024/01/11 13:53:01;;;;;;;42.15;22.83;;;;;;;;;;4927061;29;20051;-80
2024/01/11 13:55:37;;;;;;;40.33;21.92;;;;;;;;;;4931448;28;20051;-80
2024/01/11 13:58:05;;;;;;;43.05;21.02;;;;;;;;;;4930512;29;20051;-80
2024/01/11 14:00:32;;;;;;;40.08;22.33;;;;;;;;;;4943006;29;20059;-80
2024/01/11 14:02:59;;;;;;;38.83;22.00;;;;;;;;;;4918612;29;20047;-80
2024/01/11 14:05:26;;;;;;;41.85;21.98;;;;;;;;;;4926434;29;20119;-80
2024/01/11 14:07:58;;;;;;;42.20;21.05;;;;;;;;;;4941822;29;20065;-80
2024/01/11 14:10:26;;;;;;;46.35;22.88;;;;;;;;;;4933757;29;20048;-79
2024/01/11 14:12:54;;;;;;;47.45;23.50;;;;;;;;;;4933207;28;20106;-79
2024/01/11 14:15:21;;;;;;;41.35;22.67;;;;;;;;;;4927047;29;20585;-79
2024/01/11 14:17:48;;;;;;;45.38;23.73;;;;;;;;;;4927095;29;20083;-80
2024/01/11 14:20:16;;;;;;;44.55;23.75;;;;;;;;;;4927107;29;20055;-80
2024/01/11 14:22:48;;;;;;;40.45;22.40;;;;;;;;;;4919827;29;20049;-80